createdAt,value
2018-03-14T00:00:45.984Z,5.5
2018-03-14T00:01:45.979Z,5.58
2018-03-14T00:02:46.017Z,5.51
2018-03-14T00:03:49.277Z,5.49
2018-03-14T00:04:45.986Z,5.48
2018-03-14T00:05:46.025Z,5.63
2018-03-14T00:06:45.993Z,5.55
2018-03-14T00:07:46.037Z,5.56
2018-03-14T00:08:46.070Z,5.55
2018-03-14T00:09:45.984Z,5.5
2018-03-14T00:10:45.996Z,5.57
2018-03-14T00:11:49.560Z,5.43
2018-03-14T00:12:46.008Z,5.4
2018-03-14T00:13:46.067Z,5.46
2018-03-14T00:14:46.659Z,5.42
2018-03-14T00:15:46.068Z,5.39
2018-03-14T00:16:46.036Z,5.22
2018-03-14T00:17:46.060Z,5.2
2018-03-14T00:18:46.048Z,5.33
2018-03-14T00:19:46.040Z,5.23
2018-03-14T00:20:46.041Z,5.32
2018-03-14T00:21:46.060Z,5.27
2018-03-14T00:22:46.065Z,5.31
2018-03-14T00:23:46.138Z,5.38
2018-03-14T00:24:46.046Z,5.34
2018-03-14T00:25:46.128Z,5.23
2018-03-14T00:26:46.583Z,5.26
2018-03-14T00:27:46.080Z,5.22
2018-03-14T00:28:46.653Z,5.25
2018-03-14T00:29:46.065Z,5.29
2018-03-14T00:30:46.113Z,5.28
2018-03-14T00:31:46.059Z,5.29
2018-03-14T00:32:46.069Z,5.02
2018-03-14T00:33:46.094Z,5.16
2018-03-14T00:34:47.973Z,5.14
2018-03-14T00:35:46.134Z,5.17
2018-03-14T00:36:46.178Z,5.1
2018-03-14T00:37:46.071Z,4.99
2018-03-14T00:38:46.115Z,4.97
2018-03-14T00:39:46.539Z,5.05
2018-03-14T00:40:46.152Z,4.98
2018-03-14T00:41:46.122Z,5.04
2018-03-14T00:42:48.265Z,5.07
2018-03-14T00:43:46.161Z,5.03
2018-03-14T00:44:47.330Z,5.04
2018-03-14T00:45:46.139Z,5.07
2018-03-14T00:46:46.164Z,5.03
2018-03-14T00:47:46.138Z,5.18
2018-03-14T00:48:46.159Z,5.22
2018-03-14T00:49:46.152Z,5.27
2018-03-14T00:50:49.605Z,5.23
2018-03-14T00:51:46.147Z,5.16
2018-03-14T00:52:46.132Z,5.33
2018-03-14T00:53:46.145Z,5.35
2018-03-14T00:54:46.140Z,5.34
2018-03-14T00:55:46.211Z,5.31
2018-03-14T00:56:46.158Z,5.31
2018-03-14T00:57:46.255Z,5.2
2018-03-14T00:58:49.734Z,5.1
2018-03-14T00:59:46.204Z,5.11
2018-03-14T01:00:46.192Z,5.28
2018-03-14T01:01:46.204Z,5.34
2018-03-14T01:02:46.185Z,5.12
2018-03-14T01:03:46.175Z,5.19
2018-03-14T01:04:46.167Z,5.12
2018-03-14T01:05:46.858Z,5.1
2018-03-14T01:06:46.215Z,5.12
2018-03-14T01:07:46.209Z,5.14
2018-03-14T01:08:46.168Z,5.23
2018-03-14T01:09:46.223Z,5.29
2018-03-14T01:10:46.248Z,5.32
2018-03-14T01:11:46.238Z,5.33
2018-03-14T01:12:46.242Z,5.36
2018-03-14T01:13:48.668Z,5.36
2018-03-14T01:14:46.310Z,5.42
2018-03-14T01:15:46.262Z,5.39
2018-03-14T01:16:46.240Z,5.38
2018-03-14T01:17:46.256Z,5.31
2018-03-14T01:18:46.227Z,5.25
2018-03-14T01:19:46.273Z,5.25
2018-03-14T01:20:46.264Z,5.33
2018-03-14T01:21:48.520Z,5.28
2018-03-14T01:22:46.231Z,5.2
2018-03-14T01:23:46.240Z,5.32
2018-03-14T01:24:46.261Z,5.33
2018-03-14T01:25:46.292Z,5.39
2018-03-14T01:26:46.248Z,5.22
2018-03-14T01:27:46.270Z,5.27
2018-03-14T01:28:46.297Z,5.3
2018-03-14T01:29:49.760Z,5.19
2018-03-14T01:30:46.258Z,5.15
2018-03-14T01:31:46.271Z,5.25
2018-03-14T01:32:46.273Z,5.3
2018-03-14T01:33:46.311Z,5.21
2018-03-14T01:34:46.260Z,5.17
2018-03-14T01:35:46.389Z,5.13
2018-03-14T01:36:46.494Z,5.07
2018-03-14T01:37:46.298Z,5.03
2018-03-14T01:38:46.292Z,5.04
2018-03-14T01:39:46.381Z,5.13
2018-03-14T01:40:46.322Z,5.15
2018-03-14T01:41:46.325Z,5.18
2018-03-14T01:42:46.307Z,5.2
2018-03-14T01:43:46.327Z,5.17
2018-03-14T01:44:47.425Z,5.13
2018-03-14T01:45:46.380Z,5.11
2018-03-14T01:46:46.309Z,5.18
2018-03-14T01:47:46.339Z,5.14
2018-03-14T01:48:46.400Z,5.22
2018-03-14T01:49:46.404Z,5.09
2018-03-14T01:50:46.399Z,5.06
2018-03-14T01:51:46.328Z,5.04
2018-03-14T01:52:48.471Z,5.11
2018-03-14T01:53:46.403Z,5.03
2018-03-14T01:54:46.316Z,5.05
2018-03-14T01:55:46.972Z,4.99
2018-03-14T01:56:46.335Z,5.17
2018-03-14T01:57:47.278Z,5.09
2018-03-14T01:58:46.308Z,5.16
2018-03-14T01:59:46.346Z,5.1
2018-03-14T02:00:46.435Z,5.08
2018-03-14T02:01:46.313Z,5.11
2018-03-14T02:02:46.328Z,5.11
2018-03-14T02:03:46.352Z,5.05
2018-03-14T02:04:46.374Z,5.13
2018-03-14T02:05:46.323Z,5.1
2018-03-14T02:06:46.334Z,5.05
2018-03-14T02:07:47.257Z,5.06
2018-03-14T02:08:46.341Z,5
2018-03-14T02:09:46.400Z,5
2018-03-14T02:10:46.352Z,5.03
2018-03-14T02:11:46.388Z,5.15
2018-03-14T02:12:46.359Z,5.21
2018-03-14T02:13:46.359Z,5.2
2018-03-14T02:14:46.419Z,5.29
2018-03-14T02:15:48.835Z,5.2
2018-03-14T02:16:46.351Z,5.2
2018-03-14T02:17:46.382Z,5.25
2018-03-14T02:18:46.408Z,5.16
2018-03-14T02:19:46.388Z,5.16
2018-03-14T02:20:46.406Z,5.17
2018-03-14T02:21:46.496Z,5.14
2018-03-14T02:22:46.426Z,5.05
2018-03-14T02:23:49.811Z,5.1
2018-03-14T02:24:46.378Z,5.13
2018-03-14T02:25:46.616Z,5.16
2018-03-14T02:26:46.446Z,5.18
2018-03-14T02:27:46.389Z,5.19
2018-03-14T02:28:46.404Z,5.14
2018-03-14T02:29:46.449Z,5.15
2018-03-14T02:30:46.874Z,5.15
2018-03-14T02:31:46.406Z,5.12
2018-03-14T02:32:46.416Z,5.15
2018-03-14T02:33:46.402Z,5.09
2018-03-14T02:34:46.428Z,5.13
2018-03-14T02:35:46.498Z,5.11
2018-03-14T02:36:46.453Z,5.19
2018-03-14T02:37:46.427Z,5.12
2018-03-14T02:38:49.269Z,5.25
2018-03-14T02:39:46.467Z,5.16
2018-03-14T02:40:46.477Z,5.17
2018-03-14T02:41:46.438Z,5.1
2018-03-14T02:42:46.452Z,5.14
2018-03-14T02:43:46.440Z,5.11
2018-03-14T02:44:46.380Z,5.15
2018-03-14T02:45:46.378Z,5.12
2018-03-14T02:46:46.572Z,5.09
2018-03-14T02:47:46.401Z,5.09
2018-03-14T02:48:46.401Z,5.04
2018-03-14T02:49:46.404Z,5.02
2018-03-14T02:50:46.409Z,5.04
2018-03-14T02:51:46.435Z,5.17
2018-03-14T02:52:46.430Z,5.21
2018-03-14T02:53:46.431Z,5.25
2018-03-14T02:54:46.430Z,5.28
2018-03-14T02:55:46.431Z,5.29
2018-03-14T02:56:46.445Z,5.2
2018-03-14T02:57:46.452Z,5.2
2018-03-14T02:58:46.460Z,5.24
2018-03-14T02:59:46.444Z,5.23
2018-03-14T03:00:46.458Z,5.23
2018-03-14T03:01:46.465Z,5.22
2018-03-14T03:02:46.456Z,5.2
2018-03-14T03:03:46.483Z,5.14
2018-03-14T03:04:46.460Z,5.17
2018-03-14T03:05:46.462Z,5.16
2018-03-14T03:06:46.475Z,5.13
2018-03-14T03:07:46.471Z,5.17
2018-03-14T03:08:46.496Z,5.16
2018-03-14T03:09:46.476Z,5.2
2018-03-14T03:10:46.492Z,5.21
2018-03-14T03:11:46.471Z,5.17
2018-03-14T03:12:46.638Z,5.22
2018-03-14T03:13:46.513Z,5.19
2018-03-14T03:14:46.487Z,5.18
2018-03-14T03:15:46.482Z,5.15
2018-03-14T03:16:46.487Z,5.18
2018-03-14T03:17:46.488Z,5.2
2018-03-14T03:18:46.508Z,5.23
2018-03-14T03:19:46.510Z,5.23
2018-03-14T03:20:46.520Z,5.27
2018-03-14T03:21:46.516Z,5.26
2018-03-14T03:22:46.513Z,5.22
2018-03-14T03:23:46.563Z,5.22
2018-03-14T03:24:46.506Z,5.22
2018-03-14T03:25:46.534Z,5.23
2018-03-14T03:26:46.540Z,5.25
2018-03-14T03:27:46.555Z,5.18
2018-03-14T03:28:46.586Z,5.24
2018-03-14T03:29:46.538Z,5.28
2018-03-14T03:30:46.573Z,5.28
2018-03-14T03:31:46.560Z,5.28
2018-03-14T03:32:46.565Z,5.32
2018-03-14T03:33:46.549Z,5.29
2018-03-14T03:34:46.558Z,5.23
2018-03-14T03:35:46.575Z,5.2
2018-03-14T03:36:46.567Z,5.19
2018-03-14T03:37:46.561Z,5.18
2018-03-14T03:38:46.824Z,5.25
2018-03-14T03:39:46.559Z,5.24
2018-03-14T03:40:46.572Z,5.23
2018-03-14T03:41:46.584Z,5.24
2018-03-14T03:42:46.591Z,5.26
2018-03-14T03:43:46.613Z,5.11
2018-03-14T03:44:46.590Z,5.04
2018-03-14T03:45:46.596Z,5.08
2018-03-14T03:46:46.607Z,5.03
2018-03-14T03:47:46.594Z,4.97
2018-03-14T03:48:46.598Z,4.96
2018-03-14T03:49:46.612Z,4.97
2018-03-14T03:50:46.612Z,5.01
2018-03-14T03:51:46.637Z,5
2018-03-14T03:52:46.613Z,4.87
2018-03-14T03:53:46.616Z,4.75
2018-03-14T03:54:46.627Z,4.75
2018-03-14T03:55:46.635Z,4.74
2018-03-14T03:56:46.641Z,4.83
2018-03-14T03:57:46.642Z,4.84
2018-03-14T03:58:46.653Z,4.73
2018-03-14T03:59:46.641Z,4.65
2018-03-14T04:00:46.651Z,4.7
2018-03-14T04:01:46.659Z,4.75
2018-03-14T04:02:46.654Z,4.8
2018-03-14T04:03:46.728Z,4.86
2018-03-14T04:04:46.713Z,4.86
2018-03-14T04:05:46.665Z,4.75
2018-03-14T04:06:46.674Z,4.78
2018-03-14T04:07:46.694Z,4.66
2018-03-14T04:08:46.676Z,4.72
2018-03-14T04:09:46.678Z,4.76
2018-03-14T04:10:46.676Z,4.7
2018-03-14T04:11:46.964Z,4.64
2018-03-14T04:12:46.683Z,4.57
2018-03-14T04:13:46.739Z,4.73
2018-03-14T04:14:46.693Z,4.77
2018-03-14T04:15:46.704Z,4.67
2018-03-14T04:16:46.756Z,4.71
2018-03-14T04:17:46.702Z,4.69
2018-03-14T04:18:46.718Z,4.67
2018-03-14T04:19:46.705Z,4.68
2018-03-14T04:20:46.723Z,4.77
2018-03-14T04:21:46.716Z,4.86
2018-03-14T04:22:46.724Z,4.79
2018-03-14T04:23:46.745Z,4.71
2018-03-14T04:24:46.761Z,4.73
2018-03-14T04:25:46.732Z,4.85
2018-03-14T04:26:46.740Z,4.93
2018-03-14T04:27:46.727Z,4.52
2018-03-14T04:28:46.742Z,4.62
2018-03-14T04:29:46.720Z,4.39
2018-03-14T04:30:46.772Z,4.46
2018-03-14T04:31:46.738Z,4.46
2018-03-14T04:32:46.743Z,4.48
2018-03-14T04:33:46.738Z,4.41
2018-03-14T04:34:46.733Z,4.44
2018-03-14T04:35:46.738Z,4.49
2018-03-14T04:36:46.744Z,4.38
2018-03-14T04:37:46.754Z,4.35
2018-03-14T04:38:46.761Z,4.4
2018-03-14T04:39:46.763Z,4.47
2018-03-14T04:40:46.753Z,4.47
2018-03-14T04:41:46.768Z,4.51
2018-03-14T04:42:46.770Z,4.53
2018-03-14T04:43:46.763Z,4.55
2018-03-14T04:44:46.776Z,4.58
2018-03-14T04:45:46.775Z,4.59
2018-03-14T04:46:47.009Z,4.62
2018-03-14T04:47:46.797Z,4.64
2018-03-14T04:48:46.795Z,4.66
2018-03-14T04:49:46.803Z,4.68
2018-03-14T04:50:46.810Z,4.67
2018-03-14T04:51:46.832Z,4.64
2018-03-14T04:52:46.813Z,4.62
2018-03-14T04:53:46.845Z,4.61
2018-03-14T04:54:46.817Z,4.63
2018-03-14T04:55:46.804Z,4.63
2018-03-14T04:56:46.822Z,4.67
2018-03-14T04:57:46.830Z,4.64
2018-03-14T04:58:46.840Z,4.61
2018-03-14T04:59:46.824Z,4.61
2018-03-14T05:00:46.837Z,4.65
2018-03-14T05:01:46.838Z,4.56
2018-03-14T05:02:46.860Z,4.54
2018-03-14T05:03:46.861Z,4.57
2018-03-14T05:04:46.833Z,4.6
2018-03-14T05:05:46.823Z,4.63
2018-03-14T05:06:46.839Z,4.6
2018-03-14T05:07:46.847Z,4.6
2018-03-14T05:08:46.831Z,4.57
2018-03-14T05:09:46.840Z,4.61
2018-03-14T05:10:46.836Z,4.59
2018-03-14T05:11:46.842Z,4.55
2018-03-14T05:12:46.856Z,4.59
2018-03-14T05:13:46.870Z,4.61
2018-03-14T05:14:46.836Z,4.59
2018-03-14T05:15:46.864Z,4.63
2018-03-14T05:16:46.856Z,4.6
2018-03-14T05:17:46.857Z,4.6
2018-03-14T05:18:46.874Z,4.63
2018-03-14T05:19:46.900Z,4.68
2018-03-14T05:20:46.886Z,4.65
2018-03-14T05:21:46.898Z,4.64
2018-03-14T05:22:46.881Z,4.61
2018-03-14T05:23:46.887Z,4.65
2018-03-14T05:24:46.878Z,4.59
2018-03-14T05:25:46.876Z,4.59
2018-03-14T05:26:47.101Z,4.59
2018-03-14T05:27:46.879Z,4.59
2018-03-14T05:28:46.980Z,4.5
2018-03-14T05:29:46.899Z,4.5
2018-03-14T05:30:46.910Z,4.56
2018-03-14T05:31:46.925Z,4.61
2018-03-14T05:32:46.890Z,4.55
2018-03-14T05:33:46.906Z,4.6
2018-03-14T05:34:47.063Z,4.63
2018-03-14T05:35:46.914Z,4.58
2018-03-14T05:36:46.914Z,4.58
2018-03-14T05:37:46.929Z,4.6
2018-03-14T05:38:46.934Z,4.62
2018-03-14T05:39:46.942Z,4.62
2018-03-14T05:40:46.916Z,4.62
2018-03-14T05:41:46.926Z,4.6
2018-03-14T05:42:46.928Z,4.62
2018-03-14T05:43:46.932Z,4.64
2018-03-14T05:44:46.944Z,4.66
2018-03-14T05:45:46.957Z,4.6
2018-03-14T05:46:46.960Z,4.67
2018-03-14T05:47:47.180Z,4.73
2018-03-14T05:48:46.968Z,4.77
2018-03-14T05:49:46.973Z,4.7
2018-03-14T05:50:46.989Z,4.73
2018-03-14T05:51:46.979Z,4.75
2018-03-14T05:52:46.990Z,4.75
2018-03-14T05:53:47.114Z,4.77
2018-03-14T05:54:46.989Z,4.81
2018-03-14T05:55:46.985Z,4.75
2018-03-14T05:56:47.004Z,4.84
2018-03-14T05:57:46.999Z,4.92
2018-03-14T05:58:46.993Z,4.84
2018-03-14T05:59:47.004Z,4.89
2018-03-14T06:00:47.017Z,4.89
2018-03-14T06:01:47.001Z,4.83
2018-03-14T06:02:47.027Z,4.82
2018-03-14T06:03:47.017Z,4.92
2018-03-14T06:04:47.070Z,4.92
2018-03-14T06:05:47.028Z,4.85
2018-03-14T06:06:47.003Z,4.86
2018-03-14T06:07:47.036Z,4.86
2018-03-14T06:08:47.030Z,4.82
2018-03-14T06:09:47.040Z,4.84
2018-03-14T06:10:47.037Z,4.82
2018-03-14T06:11:47.045Z,4.87
2018-03-14T06:12:47.041Z,4.87
2018-03-14T06:13:47.052Z,4.82
2018-03-14T06:14:47.127Z,4.83
2018-03-14T06:15:47.077Z,4.87
2018-03-14T06:16:47.094Z,4.86
2018-03-14T06:17:47.073Z,4.86
2018-03-14T06:18:47.091Z,4.84
2018-03-14T06:19:47.137Z,4.86
2018-03-14T06:20:47.075Z,4.84
2018-03-14T06:21:47.083Z,4.89
2018-03-14T06:22:47.086Z,4.93
2018-03-14T06:23:47.097Z,4.94
2018-03-14T06:24:47.130Z,4.95
2018-03-14T06:25:47.092Z,4.91
2018-03-14T06:26:47.117Z,4.9
2018-03-14T06:27:47.126Z,4.96
2018-03-14T06:28:47.119Z,4.96
2018-03-14T06:29:47.235Z,4.85
2018-03-14T06:30:47.153Z,4.88
2018-03-14T06:31:47.112Z,4.92
2018-03-14T06:32:47.123Z,4.86
2018-03-14T06:33:47.141Z,4.85
2018-03-14T06:34:47.142Z,4.87
2018-03-14T06:35:47.175Z,4.89
2018-03-14T06:36:47.148Z,4.87
2018-03-14T06:37:47.161Z,4.92
2018-03-14T06:38:47.193Z,4.9
2018-03-14T06:39:47.169Z,4.89
2018-03-14T06:40:47.176Z,4.94
2018-03-14T06:41:47.149Z,4.93
2018-03-14T06:42:47.177Z,4.95
2018-03-14T06:43:47.164Z,4.93
2018-03-14T06:44:47.158Z,4.99
2018-03-14T06:45:47.199Z,5
2018-03-14T06:46:47.188Z,4.95
2018-03-14T06:47:47.184Z,4.93
2018-03-14T06:48:47.220Z,4.88
2018-03-14T06:49:47.189Z,4.94
2018-03-14T06:50:47.191Z,4.96
2018-03-14T06:51:47.187Z,4.91
2018-03-14T06:52:47.201Z,4.93
2018-03-14T06:53:47.234Z,4.84
2018-03-14T06:54:47.212Z,4.85
2018-03-14T06:55:47.257Z,4.94
2018-03-14T06:56:47.217Z,4.97
2018-03-14T06:57:47.283Z,5.04
2018-03-14T06:58:47.225Z,5.08
2018-03-14T06:59:47.215Z,5.14
2018-03-14T07:00:47.215Z,5
2018-03-14T07:01:47.215Z,4.99
2018-03-14T07:02:47.227Z,5.05
2018-03-14T07:03:47.247Z,5.07
2018-03-14T07:04:47.235Z,5.04
2018-03-14T07:05:47.339Z,5.06
2018-03-14T07:06:47.251Z,5.09
2018-03-14T07:07:47.253Z,5.15
2018-03-14T07:08:47.267Z,5.07
2018-03-14T07:09:47.245Z,5.06
2018-03-14T07:10:47.263Z,5.11
2018-03-14T07:11:47.312Z,5.11
2018-03-14T07:12:47.255Z,5.13
2018-03-14T07:13:47.288Z,5.1
2018-03-14T07:14:47.283Z,5.11
2018-03-14T07:15:47.274Z,5.11
2018-03-14T07:16:47.297Z,5.12
2018-03-14T07:17:47.277Z,5.15
2018-03-14T07:18:47.287Z,5.12
2018-03-14T07:19:47.305Z,5.18
2018-03-14T07:20:47.282Z,5.19
2018-03-14T07:21:47.293Z,5.17
2018-03-14T07:22:47.319Z,5.17
2018-03-14T07:23:47.296Z,5.21
2018-03-14T07:24:47.326Z,5.18
2018-03-14T07:25:47.306Z,5.24
2018-03-14T07:26:47.319Z,5.2
2018-03-14T07:27:47.334Z,5.17
2018-03-14T07:28:47.318Z,5.17
2018-03-14T07:29:47.319Z,5.12
2018-03-14T07:30:47.329Z,5.15
2018-03-14T07:31:47.362Z,5.2
2018-03-14T07:32:47.361Z,5.09
2018-03-14T07:33:47.365Z,5.13
2018-03-14T07:34:47.340Z,5.11
2018-03-14T07:35:47.348Z,5.16
2018-03-14T07:36:47.359Z,5.17
2018-03-14T07:37:47.414Z,5.18
2018-03-14T07:38:47.359Z,5.24
2018-03-14T07:39:47.358Z,5.25
2018-03-14T07:40:47.359Z,5.27
2018-03-14T07:41:47.353Z,5.29
2018-03-14T07:42:47.382Z,5.26
2018-03-14T07:43:47.363Z,5.24
2018-03-14T07:44:47.360Z,5.28
2018-03-14T07:45:47.364Z,5.32
2018-03-14T07:46:47.360Z,5.35
2018-03-14T07:47:47.409Z,5.26
2018-03-14T07:48:47.406Z,5.26
2018-03-14T07:49:47.385Z,5.27
2018-03-14T07:50:47.387Z,5.28
2018-03-14T07:51:47.387Z,5.29
2018-03-14T07:52:47.394Z,5.29
2018-03-14T07:53:47.405Z,5.21
2018-03-14T07:54:47.394Z,5.26
2018-03-14T07:55:47.400Z,5.2
2018-03-14T07:56:47.413Z,5.14
2018-03-14T07:57:47.416Z,5.14
2018-03-14T07:58:47.460Z,5.1
2018-03-14T07:59:47.467Z,5.14
2018-03-14T08:00:47.424Z,5.1
2018-03-14T08:01:47.416Z,5.15
2018-03-14T08:02:47.454Z,5.22
2018-03-14T08:03:47.450Z,5.32
2018-03-14T08:04:47.434Z,5.34
2018-03-14T08:05:47.600Z,5.35
2018-03-14T08:06:47.529Z,5.43
2018-03-14T08:07:47.431Z,5.41
2018-03-14T08:08:47.486Z,5.13
2018-03-14T08:09:47.440Z,5.19
2018-03-14T08:10:47.452Z,5.25
2018-03-14T08:11:47.452Z,5.29
2018-03-14T08:12:47.489Z,5.39
2018-03-14T08:13:48.875Z,5.41
2018-03-14T08:14:47.468Z,5.49
2018-03-14T08:15:47.479Z,5.47
2018-03-14T08:16:47.472Z,5.39
2018-03-14T08:17:47.464Z,5.39
2018-03-14T08:18:47.478Z,5.27
2018-03-14T08:19:47.473Z,5.27
2018-03-14T08:20:47.481Z,5.31
2018-03-14T08:21:47.550Z,5.25
2018-03-14T08:22:47.479Z,5.26
2018-03-14T08:23:47.488Z,5.21
2018-03-14T08:24:47.490Z,5.15
2018-03-14T08:25:47.485Z,5.04
2018-03-14T08:26:47.518Z,5.12
2018-03-14T08:27:47.709Z,5.12
2018-03-14T08:28:47.525Z,5.19
2018-03-14T08:29:47.497Z,5.23
2018-03-14T08:30:47.516Z,5.26
2018-03-14T08:31:47.503Z,5.35
2018-03-14T08:32:47.509Z,5.28
2018-03-14T08:33:47.517Z,5.17
2018-03-14T08:34:47.512Z,5.21
2018-03-14T08:35:47.501Z,5.16
2018-03-14T08:36:47.514Z,5.33
2018-03-14T08:37:47.530Z,5.31
2018-03-14T08:38:47.552Z,5.31
2018-03-14T08:39:47.530Z,5.21
2018-03-14T08:40:47.521Z,5.22
2018-03-14T08:41:47.532Z,5.31
2018-03-14T08:42:47.534Z,5.45
2018-03-14T08:43:47.555Z,5.43
2018-03-14T08:44:47.521Z,5.32
2018-03-14T08:45:47.548Z,5.37
2018-03-14T08:46:47.742Z,5.45
2018-03-14T08:47:47.547Z,5.36
2018-03-14T08:48:47.553Z,5.52
2018-03-14T08:49:47.576Z,5.51
2018-03-14T08:50:47.565Z,5.35
2018-03-14T08:51:47.564Z,5.31
2018-03-14T08:52:47.559Z,5.07
2018-03-14T08:53:47.565Z,5.32
2018-03-14T08:54:47.589Z,5.46
2018-03-14T08:55:47.992Z,5.34
2018-03-14T08:56:47.650Z,5.45
2018-03-14T08:57:47.580Z,5.44
2018-03-14T08:58:47.592Z,5.49
2018-03-14T08:59:47.590Z,5.48
2018-03-14T09:00:47.580Z,5.38
2018-03-14T09:01:47.595Z,5.32
2018-03-14T09:02:47.594Z,4.92
2018-03-14T09:03:47.645Z,4.96
2018-03-14T09:04:47.618Z,4.58
2018-03-14T09:05:47.604Z,4.96
2018-03-14T09:06:47.599Z,4.47
2018-03-14T09:07:47.630Z,4.29
2018-03-14T09:08:47.600Z,4.35
2018-03-14T09:09:47.624Z,4.1
2018-03-14T09:10:47.688Z,4.2
2018-03-14T09:11:47.642Z,4.12
2018-03-14T09:12:47.620Z,4.22
2018-03-14T09:13:47.648Z,4.17
2018-03-14T09:14:47.627Z,4.17
2018-03-14T09:15:47.622Z,4.32
2018-03-14T09:16:47.629Z,3.96
2018-03-14T09:17:47.636Z,4.11
2018-03-14T09:18:47.638Z,4.48
2018-03-14T09:19:47.658Z,4.55
2018-03-14T09:20:47.631Z,4.49
2018-03-14T09:21:47.632Z,4.47
2018-03-14T09:22:47.650Z,4.68
2018-03-14T09:23:47.645Z,4.78
2018-03-14T09:24:47.672Z,4.74
2018-03-14T09:25:47.666Z,4.87
2018-03-14T09:26:47.662Z,4.66
2018-03-14T09:27:47.665Z,4.49
2018-03-14T09:28:47.678Z,4.39
2018-03-14T09:29:47.717Z,3.86
2018-03-14T09:30:47.678Z,4.06
2018-03-14T09:31:48.011Z,4.25
2018-03-14T09:32:47.703Z,4.31
2018-03-14T09:33:47.692Z,4.13
2018-03-14T09:34:47.729Z,3.75
2018-03-14T09:35:47.700Z,3.66
2018-03-14T09:36:47.717Z,3.59
2018-03-14T09:37:48.392Z,3.15
2018-03-14T09:38:47.721Z,3.5
2018-03-14T09:39:48.088Z,3.68
2018-03-14T09:40:47.825Z,3.33
2018-03-14T09:41:47.853Z,3.8
2018-03-14T09:42:47.728Z,3.68
2018-03-14T09:43:47.735Z,3.48
2018-03-14T09:44:47.865Z,3.76
2018-03-14T09:45:47.746Z,3.75
2018-03-14T09:46:47.743Z,4
2018-03-14T09:47:47.744Z,4.12
2018-03-14T09:48:47.834Z,3.36
2018-03-14T09:49:47.819Z,3.28
2018-03-14T09:50:47.780Z,3.42
2018-03-14T09:51:47.827Z,3.92
2018-03-14T09:52:47.823Z,4.05
2018-03-14T09:53:47.824Z,4.3
2018-03-14T09:54:47.837Z,4.16
2018-03-14T09:55:47.829Z,3.87
2018-03-14T09:56:47.866Z,3.35
2018-03-14T09:57:47.896Z,3.7
2018-03-14T09:58:47.836Z,3.77
2018-03-14T09:59:47.848Z,3.99
2018-03-14T10:00:48.183Z,3.48
2018-03-14T10:01:47.827Z,3.31
2018-03-14T10:02:48.950Z,3.56
2018-03-14T10:03:47.834Z,3.56
2018-03-14T10:04:47.831Z,3.61
2018-03-14T10:05:47.859Z,3.46
2018-03-14T10:06:47.867Z,3.66
2018-03-14T10:07:47.861Z,3.77
2018-03-14T10:08:47.868Z,3.31
2018-03-14T10:09:47.873Z,3.41
2018-03-14T10:10:47.894Z,3.48
2018-03-14T10:11:47.861Z,3.58
2018-03-14T10:12:47.907Z,3.61
2018-03-14T10:13:47.863Z,3.76
2018-03-14T10:14:47.881Z,3.86
2018-03-14T10:15:47.888Z,3.68
2018-03-14T10:16:48.042Z,3.58
2018-03-14T10:17:47.888Z,3.74
2018-03-14T10:18:47.918Z,3.59
2018-03-14T10:19:47.929Z,3.49
2018-03-14T10:20:47.879Z,2.94
2018-03-14T10:21:48.128Z,3.06
2018-03-14T10:22:47.892Z,3
2018-03-14T10:23:48.915Z,2.97
2018-03-14T10:24:47.877Z,2.95
2018-03-14T10:25:48.806Z,3.14
2018-03-14T10:26:47.951Z,3.19
2018-03-14T10:27:47.944Z,3.5
2018-03-14T10:28:48.501Z,3.56
2018-03-14T10:29:47.916Z,3.77
2018-03-14T10:30:47.927Z,3.88
2018-03-14T10:31:47.933Z,3.5
2018-03-14T10:32:47.937Z,3.42
2018-03-14T10:33:47.924Z,3.56
2018-03-14T10:34:47.924Z,3.92
2018-03-14T10:35:47.950Z,3.54
2018-03-14T10:36:48.585Z,3.26
2018-03-14T10:37:47.975Z,3.17
2018-03-14T10:38:47.951Z,3.53
2018-03-14T10:39:47.927Z,3.66
2018-03-14T10:40:48.095Z,3.02
2018-03-14T10:41:47.961Z,2.86
2018-03-14T10:42:47.958Z,3.02
2018-03-14T10:43:47.975Z,2.83
2018-03-14T10:44:48.571Z,3
2018-03-14T10:45:47.960Z,2.86
2018-03-14T10:46:47.973Z,2.96
2018-03-14T10:47:47.991Z,2.95
2018-03-14T10:48:49.002Z,2.78
2018-03-14T10:49:47.994Z,3.27
2018-03-14T10:50:47.986Z,3.2
2018-03-14T10:51:47.992Z,3.34
2018-03-14T10:52:47.994Z,2.95
2018-03-14T10:53:47.988Z,3.52
2018-03-14T10:54:47.998Z,3.78
2018-03-14T10:55:47.982Z,3.79
2018-03-14T10:56:47.963Z,3.19
2018-03-14T10:57:47.979Z,3.18
2018-03-14T10:58:49.458Z,3.82
2018-03-14T10:59:48.014Z,3.67
2018-03-14T11:00:48.108Z,3.73
2018-03-14T11:01:48.000Z,3.86
2018-03-14T11:02:48.264Z,3.83
2018-03-14T11:03:48.132Z,3.76
2018-03-14T11:04:48.238Z,3.63
2018-03-14T11:05:48.142Z,4
2018-03-14T11:06:48.018Z,4.11
2018-03-14T11:07:48.577Z,3.52
2018-03-14T11:08:48.010Z,3.1
2018-03-14T11:09:48.020Z,3.3
2018-03-14T11:10:48.200Z,3.1
2018-03-14T11:11:47.999Z,3.51
2018-03-14T11:12:47.982Z,2.91
2018-03-14T11:13:48.000Z,3.31
2018-03-14T11:14:48.008Z,3.25
2018-03-14T11:15:48.009Z,3.26
2018-03-14T11:16:48.019Z,2.87
2018-03-14T11:17:48.019Z,2.85
2018-03-14T11:18:48.100Z,3.08
2018-03-14T11:19:48.069Z,3.49
2018-03-14T11:20:48.080Z,3.66
2018-03-14T11:21:48.029Z,3.65
2018-03-14T11:22:48.078Z,3.32
2018-03-14T11:23:48.078Z,3.55
2018-03-14T11:24:48.075Z,3.59
2018-03-14T11:25:48.091Z,3.54
2018-03-14T11:26:48.095Z,3.32
2018-03-14T11:27:48.158Z,3.57
2018-03-14T11:28:48.095Z,3.71
2018-03-14T11:29:48.095Z,3.58
2018-03-14T11:30:48.094Z,3.69
2018-03-14T11:31:48.093Z,3.78
2018-03-14T11:32:48.095Z,3.54
2018-03-14T11:33:48.128Z,3.59
2018-03-14T11:34:48.117Z,3.44
2018-03-14T11:35:48.123Z,3.55
2018-03-14T11:36:48.127Z,3.37
2018-03-14T11:37:48.119Z,3.39
2018-03-14T11:38:48.122Z,3.55
2018-03-14T11:39:48.151Z,3.69
2018-03-14T11:40:48.171Z,3.8
2018-03-14T11:41:48.128Z,3.19
2018-03-14T11:42:48.123Z,3.45
2018-03-14T11:43:48.144Z,3.85
2018-03-14T11:44:48.170Z,3.76
2018-03-14T11:45:48.158Z,3.69
2018-03-14T11:46:48.163Z,3.58
2018-03-14T11:47:48.168Z,3.63
2018-03-14T11:48:48.167Z,3.74
2018-03-14T11:49:48.167Z,3.48
2018-03-14T11:50:48.169Z,3.11
2018-03-14T11:51:48.175Z,3.36
2018-03-14T11:52:48.172Z,3.09
2018-03-14T11:53:48.169Z,3.12
2018-03-14T11:54:48.762Z,3.5
2018-03-14T11:55:48.188Z,3.86
2018-03-14T11:56:48.192Z,4.16
2018-03-14T11:57:48.200Z,3.96
2018-03-14T11:58:48.182Z,3.69
2018-03-14T11:59:48.184Z,3.19
2018-03-14T12:00:48.189Z,3.12
2018-03-14T12:01:49.173Z,2.95
2018-03-14T12:02:48.338Z,3.08
2018-03-14T12:03:48.215Z,2.98
2018-03-14T12:04:48.211Z,3.5
2018-03-14T12:05:48.227Z,3.62
2018-03-14T12:06:48.216Z,3.72
2018-03-14T12:07:48.233Z,3.9
2018-03-14T12:08:48.225Z,3.75
2018-03-14T12:09:48.261Z,3.61
2018-03-14T12:10:48.222Z,3.22
2018-03-14T12:11:52.594Z,3.03
2018-03-14T12:12:48.234Z,3.31
2018-03-14T12:13:48.234Z,3.01
2018-03-14T12:14:48.231Z,2.97
2018-03-14T12:15:48.266Z,3.44
2018-03-14T12:16:48.240Z,3.27
2018-03-14T12:17:48.243Z,3.36
2018-03-14T12:18:49.487Z,3.27
2018-03-14T12:19:48.637Z,2.91
2018-03-14T12:20:48.240Z,3.07
2018-03-14T12:21:48.249Z,2.92
2018-03-14T12:22:48.244Z,2.83
2018-03-14T12:23:49.460Z,3.06
2018-03-14T12:24:48.258Z,3.21
2018-03-14T12:25:48.246Z,3.45
2018-03-14T12:26:48.919Z,3.3
2018-03-14T12:27:50.038Z,3.4
2018-03-14T12:28:48.247Z,3.14
2018-03-14T12:29:48.272Z,3.37
2018-03-14T12:30:48.503Z,3.03
2018-03-14T12:31:49.515Z,2.98
2018-03-14T12:32:48.273Z,3.25
2018-03-14T12:33:48.288Z,3.59
2018-03-14T12:34:48.996Z,3.62
2018-03-14T12:35:48.332Z,3.03
2018-03-14T12:36:48.272Z,3.39
2018-03-14T12:37:48.279Z,3.1
2018-03-14T12:38:48.288Z,3.31
2018-03-14T12:39:51.379Z,3.45
2018-03-14T12:40:52.559Z,3.24
2018-03-14T12:41:49.349Z,3.28
2018-03-14T12:42:50.427Z,3.2
2018-03-14T12:43:50.505Z,3.33
2018-03-14T12:44:50.319Z,3.4
2018-03-14T12:45:50.492Z,3.24
2018-03-14T12:46:49.214Z,3.23
2018-03-14T12:47:48.909Z,3.21
2018-03-14T12:48:51.129Z,2.98
2018-03-14T12:49:52.200Z,2.9
2018-03-14T12:50:51.863Z,2.96
2018-03-14T12:51:49.667Z,2.73
2018-03-14T12:52:49.099Z,2.7
2018-03-14T12:53:52.722Z,2.98
2018-03-14T12:54:49.738Z,2.91
2018-03-14T12:55:50.209Z,2.7
2018-03-14T12:56:48.313Z,2.65
2018-03-14T12:57:48.350Z,2.69
2018-03-14T12:58:48.369Z,2.41
2018-03-14T12:59:48.343Z,2.72
2018-03-14T13:00:48.314Z,2.3
2018-03-14T13:01:48.348Z,2.24
2018-03-14T13:02:48.311Z,2.5
2018-03-14T13:03:48.319Z,2.5
2018-03-14T13:04:48.348Z,2.69
2018-03-14T13:05:48.338Z,2.65
2018-03-14T13:06:48.330Z,2.46
2018-03-14T13:07:48.358Z,2.77
2018-03-14T13:08:48.331Z,2.52
2018-03-14T13:09:48.352Z,2.72
2018-03-14T13:10:48.361Z,2.54
2018-03-14T13:11:48.583Z,2.46
2018-03-14T13:12:48.379Z,2.86
2018-03-14T13:13:48.370Z,2.55
2018-03-14T13:14:48.363Z,2.47
2018-03-14T13:15:51.890Z,2.65
2018-03-14T13:16:48.365Z,2.99
2018-03-14T13:17:48.395Z,3.04
2018-03-14T13:18:48.377Z,2.77
2018-03-14T13:19:48.374Z,2.71
2018-03-14T13:20:48.398Z,2.78
2018-03-14T13:21:48.534Z,2.46